sensor_id;sensor_type;location;lat;lon;timestamp;P1;durP1;ratioP1;P2;durP2;ratioP2
59458;SDS011;45269;43.568;22.244;2022-08-04T00:00:16;3.95;;;3.60;;
59458;SDS011;45269;43.568;22.244;2022-08-04T00:02:46;5.53;;;3.63;;
59458;SDS011;45269;43.568;22.244;2022-08-04T00:05:19;3.80;;;3.50;;
59458;SDS011;45269;43.568;22.244;2022-08-04T00:07:53;4.50;;;3.88;;
59458;SDS011;45269;43.568;22.244;2022-08-04T00:10:21;3.22;;;2.92;;
59458;SDS011;45269;43.568;22.244;2022-08-04T00:12:47;4.50;;;3.30;;
59458;SDS011;45269;43.568;22.244;2022-08-04T00:15:14;3.38;;;3.13;;
59458;SDS011;45269;43.568;22.244;2022-08-04T00:20:23;3.92;;;3.63;;
59458;SDS011;45269;43.568;22.244;2022-08-04T00:25:18;4.00;;;3.70;;
59458;SDS011;45269;43.568;22.244;2022-08-04T00:27:43;4.03;;;3.40;;
59458;SDS011;45269;43.568;22.244;2022-08-04T00:30:09;3.38;;;3.08;;
59458;SDS011;45269;43.568;22.244;2022-08-04T00:32:35;3.63;;;3.33;;
59458;SDS011;45269;43.568;22.244;2022-08-04T00:35:01;4.10;;;3.80;;
59458;SDS011;45269;43.568;22.244;2022-08-04T00:37:27;5.90;;;3.92;;
59458;SDS011;45269;43.568;22.244;2022-08-04T00:39:52;3.28;;;3.08;;
59458;SDS011;45269;43.568;22.244;2022-08-04T00:58:34;3.85;;;3.55;;
59458;SDS011;45269;43.568;22.244;2022-08-04T01:01:04;3.67;;;3.38;;
59458;SDS011;45269;43.568;22.244;2022-08-04T01:06:08;3.75;;;3.45;;
59458;SDS011;45269;43.568;22.244;2022-08-04T01:08:44;3.78;;;3.13;;
59458;SDS011;45269;43.568;22.244;2022-08-04T01:11:17;4.00;;;3.70;;
59458;SDS011;45269;43.568;22.244;2022-08-04T01:16:16;6.80;;;3.40;;
59458;SDS011;45269;43.568;22.244;2022-08-04T01:26:37;4.00;;;3.70;;
59458;SDS011;45269;43.568;22.244;2022-08-04T01:29:05;3.90;;;3.60;;
59458;SDS011;45269;43.568;22.244;2022-08-04T01:33:58;3.83;;;3.53;;
59458;SDS011;45269;43.568;22.244;2022-08-04T01:36:24;4.88;;;3.63;;
59458;SDS011;45269;43.568;22.244;2022-08-04T01:38:50;3.65;;;3.35;;
59458;SDS011;45269;43.568;22.244;2022-08-04T01:41:18;3.20;;;3.00;;
59458;SDS011;45269;43.568;22.244;2022-08-04T01:43:44;4.07;;;3.78;;
59458;SDS011;45269;43.568;22.244;2022-08-04T01:46:14;3.88;;;3.58;;
59458;SDS011;45269;43.568;22.244;2022-08-04T01:51:06;4.60;;;3.13;;
59458;SDS011;45269;43.568;22.244;2022-08-04T01:53:32;4.07;;;3.70;;
59458;SDS011;45269;43.568;22.244;2022-08-04T01:55:58;3.35;;;3.15;;
59458;SDS011;45269;43.568;22.244;2022-08-04T01:58:24;3.80;;;3.50;;
59458;SDS011;45269;43.568;22.244;2022-08-04T02:01:13;5.22;;;3.70;;
59458;SDS011;45269;43.568;22.244;2022-08-04T02:03:39;4.00;;;3.50;;
59458;SDS011;45269;43.568;22.244;2022-08-04T02:06:27;4.28;;;3.65;;
59458;SDS011;45269;43.568;22.244;2022-08-04T02:11:39;4.72;;;4.32;;
59458;SDS011;45269;43.568;22.244;2022-08-04T02:14:15;4.72;;;4.32;;
59458;SDS011;45269;43.568;22.244;2022-08-04T02:17:03;4.88;;;4.35;;
59458;SDS011;45269;43.568;22.244;2022-08-04T02:19:31;4.22;;;3.85;;
59458;SDS011;45269;43.568;22.244;2022-08-04T02:22:02;4.00;;;3.70;;
59458;SDS011;45269;43.568;22.244;2022-08-04T02:24:31;6.53;;;3.78;;
59458;SDS011;45269;43.568;22.244;2022-08-04T02:26:56;3.78;;;3.47;;
59458;SDS011;45269;43.568;22.244;2022-08-04T02:29:33;4.05;;;3.75;;
59458;SDS011;45269;43.568;22.244;2022-08-04T02:32:03;6.30;;;4.30;;
59458;SDS011;45269;43.568;22.244;2022-08-04T02:35:03;4.05;;;3.75;;
59458;SDS011;45269;43.568;22.244;2022-08-04T02:37:20;4.07;;;3.63;;
59458;SDS011;45269;43.568;22.244;2022-08-04T02:39:49;5.88;;;4.13;;
59458;SDS011;45269;43.568;22.244;2022-08-04T02:42:16;4.57;;;3.63;;
59458;SDS011;45269;43.568;22.244;2022-08-04T02:44:42;5.18;;;3.72;;
59458;SDS011;45269;43.568;22.244;2022-08-04T02:47:12;3.83;;;3.53;;
59458;SDS011;45269;43.568;22.244;2022-08-04T02:49:38;4.40;;;4.00;;
59458;SDS011;45269;43.568;22.244;2022-08-04T02:52:06;4.32;;;3.92;;
59458;SDS011;45269;43.568;22.244;2022-08-04T02:54:38;4.10;;;3.70;;
59458;SDS011;45269;43.568;22.244;2022-08-04T02:57:07;4.25;;;3.40;;
59458;SDS011;45269;43.568;22.244;2022-08-04T02:59:42;4.43;;;4.03;;
59458;SDS011;45269;43.568;22.244;2022-08-04T03:02:13;4.20;;;3.80;;
59458;SDS011;45269;43.568;22.244;2022-08-04T03:07:28;5.63;;;3.70;;
59458;SDS011;45269;43.568;22.244;2022-08-04T03:14:58;4.55;;;3.80;;
59458;SDS011;45269;43.568;22.244;2022-08-04T03:17:30;4.22;;;3.83;;
59458;SDS011;45269;43.568;22.244;2022-08-04T03:33:23;5.72;;;3.92;;
59458;SDS011;45269;43.568;22.244;2022-08-04T03:43:59;5.22;;;4.30;;
59458;SDS011;45269;43.568;22.244;2022-08-04T04:00:45;5.55;;;5.05;;
59458;SDS011;45269;43.568;22.244;2022-08-04T04:13:33;5.85;;;5.20;;
59458;SDS011;45269;43.568;22.244;2022-08-04T04:29:28;4.53;;;4.20;;
59458;SDS011;45269;43.568;22.244;2022-08-04T04:32:01;4.55;;;4.25;;
59458;SDS011;45269;43.568;22.244;2022-08-04T04:50:02;4.32;;;3.95;;
59458;SDS011;45269;43.568;22.244;2022-08-04T04:54:59;4.20;;;3.90;;
59458;SDS011;45269;43.568;22.244;2022-08-04T04:57:28;4.32;;;4.03;;
59458;SDS011;45269;43.568;22.244;2022-08-04T05:00:29;4.38;;;3.97;;
59458;SDS011;45269;43.568;22.244;2022-08-04T05:10:59;4.38;;;4.07;;
59458;SDS011;45269;43.568;22.244;2022-08-04T05:16:01;5.38;;;3.75;;
59458;SDS011;45269;43.568;22.244;2022-08-04T05:18:29;4.28;;;3.92;;
59458;SDS011;45269;43.568;22.244;2022-08-04T05:21:06;4.53;;;4.13;;
59458;SDS011;45269;43.568;22.244;2022-08-04T05:23:32;4.22;;;3.92;;
59458;SDS011;45269;43.568;22.244;2022-08-04T05:26:05;3.42;;;3.20;;
59458;SDS011;45269;43.568;22.244;2022-08-04T05:28:42;4.10;;;3.80;;
59458;SDS011;45269;43.568;22.244;2022-08-04T05:31:10;7.43;;;4.18;;
59458;SDS011;45269;43.568;22.244;2022-08-04T05:33:46;4.63;;;4.18;;
59458;SDS011;45269;43.568;22.244;2022-08-04T05:36:16;6.03;;;3.75;;
59458;SDS011;45269;43.568;22.244;2022-08-04T05:38:42;4.15;;;3.85;;
59458;SDS011;45269;43.568;22.244;2022-08-04T05:41:08;3.67;;;3.38;;
59458;SDS011;45269;43.568;22.244;2022-08-04T05:43:35;4.00;;;3.70;;
59458;SDS011;45269;43.568;22.244;2022-08-04T05:46:01;4.53;;;3.53;;
59458;SDS011;45269;43.568;22.244;2022-08-04T05:48:27;4.32;;;3.90;;
59458;SDS011;45269;43.568;22.244;2022-08-04T05:50:53;4.53;;;3.38;;
59458;SDS011;45269;43.568;22.244;2022-08-04T05:53:19;4.05;;;3.75;;
59458;SDS011;45269;43.568;22.244;2022-08-04T05:55:45;3.83;;;3.53;;
59458;SDS011;45269;43.568;22.244;2022-08-04T05:58:10;4.13;;;3.80;;
59458;SDS011;45269;43.568;22.244;2022-08-04T06:00:37;4.18;;;3.78;;
59458;SDS011;45269;43.568;22.244;2022-08-04T06:03:03;3.17;;;2.97;;
59458;SDS011;45269;43.568;22.244;2022-08-04T06:05:28;3.40;;;3.10;;
59458;SDS011;45269;43.568;22.244;2022-08-04T06:07:53;3.63;;;3.33;;
59458;SDS011;45269;43.568;22.244;2022-08-04T06:10:19;4.20;;;3.65;;
59458;SDS011;45269;43.568;22.244;2022-08-04T06:12:45;14.95;;;4.10;;
59458;SDS011;45269;43.568;22.244;2022-08-04T06:15:13;6.80;;;3.88;;
59458;SDS011;45269;43.568;22.244;2022-08-04T06:20:06;3.77;;;3.43;;
59458;SDS011;45269;43.568;22.244;2022-08-04T06:22:32;3.55;;;3.25;;
59458;SDS011;45269;43.568;22.244;2022-08-04T06:24:58;5.22;;;3.30;;
59458;SDS011;45269;43.568;22.244;2022-08-04T06:27:24;3.95;;;3.60;;
59458;SDS011;45269;43.568;22.244;2022-08-04T06:29:50;5.03;;;3.72;;
59458;SDS011;45269;43.568;22.244;2022-08-04T06:32:16;3.47;;;3.17;;
59458;SDS011;45269;43.568;22.244;2022-08-04T06:34:55;3.30;;;3.00;;
59458;SDS011;45269;43.568;22.244;2022-08-04T06:37:21;3.55;;;3.25;;
59458;SDS011;45269;43.568;22.244;2022-08-04T06:39:47;3.30;;;3.10;;
59458;SDS011;45269;43.568;22.244;2022-08-04T06:42:13;4.10;;;3.78;;
59458;SDS011;45269;43.568;22.244;2022-08-04T06:44:39;3.72;;;3.42;;
59458;SDS011;45269;43.568;22.244;2022-08-04T06:47:06;3.55;;;3.08;;
59458;SDS011;45269;43.568;22.244;2022-08-04T06:49:32;5.97;;;3.50;;
59458;SDS011;45269;43.568;22.244;2022-08-04T06:51:58;3.55;;;3.25;;
59458;SDS011;45269;43.568;22.244;2022-08-04T06:54:25;3.65;;;3.35;;
59458;SDS011;45269;43.568;22.244;2022-08-04T06:56:50;4.65;;;3.33;;
59458;SDS011;45269;43.568;22.244;2022-08-04T06:59:17;3.60;;;3.30;;
59458;SDS011;45269;43.568;22.244;2022-08-04T07:01:43;3.33;;;3.03;;
59458;SDS011;45269;43.568;22.244;2022-08-04T07:04:10;5.78;;;3.08;;
59458;SDS011;45269;43.568;22.244;2022-08-04T07:06:35;3.50;;;3.20;;
59458;SDS011;45269;43.568;22.244;2022-08-04T07:09:01;4.40;;;3.45;;
59458;SDS011;45269;43.568;22.244;2022-08-04T07:11:27;3.50;;;3.20;;
59458;SDS011;45269;43.568;22.244;2022-08-04T07:13:52;6.30;;;3.05;;
59458;SDS011;45269;43.568;22.244;2022-08-04T07:16:18;3.65;;;3.33;;
59458;SDS011;45269;43.568;22.244;2022-08-04T07:18:45;3.95;;;3.58;;
59458;SDS011;45269;43.568;22.244;2022-08-04T07:21:10;3.90;;;3.30;;
59458;SDS011;45269;43.568;22.244;2022-08-04T07:23:42;3.38;;;3.05;;
59458;SDS011;45269;43.568;22.244;2022-08-04T07:26:09;6.85;;;3.90;;
59458;SDS011;45269;43.568;22.244;2022-08-04T07:28:34;3.38;;;3.08;;
59458;SDS011;45269;43.568;22.244;2022-08-04T07:31:00;3.40;;;3.10;;
59458;SDS011;45269;43.568;22.244;2022-08-04T07:33:26;3.28;;;3.03;;
59458;SDS011;45269;43.568;22.244;2022-08-04T07:35:55;3.47;;;3.17;;
59458;SDS011;45269;43.568;22.244;2022-08-04T07:40:46;3.20;;;2.90;;
59458;SDS011;45269;43.568;22.244;2022-08-04T07:43:13;4.35;;;3.03;;
59458;SDS011;45269;43.568;22.244;2022-08-04T07:45:38;5.80;;;3.15;;
59458;SDS011;45269;43.568;22.244;2022-08-04T07:48:04;4.45;;;3.30;;
59458;SDS011;45269;43.568;22.244;2022-08-04T07:50:30;4.18;;;2.88;;
59458;SDS011;45269;43.568;22.244;2022-08-04T07:52:56;3.25;;;2.80;;
59458;SDS011;45269;43.568;22.244;2022-08-04T07:55:22;3.67;;;2.80;;
59458;SDS011;45269;43.568;22.244;2022-08-04T07:57:47;3.00;;;2.80;;
59458;SDS011;45269;43.568;22.244;2022-08-04T08:00:13;4.82;;;2.53;;
59458;SDS011;45269;43.568;22.244;2022-08-04T08:02:39;3.35;;;3.15;;
59458;SDS011;45269;43.568;22.244;2022-08-04T08:05:06;4.55;;;3.25;;
59458;SDS011;45269;43.568;22.244;2022-08-04T08:07:31;2.60;;;2.40;;
59458;SDS011;45269;43.568;22.244;2022-08-04T08:09:58;5.30;;;2.88;;
59458;SDS011;45269;43.568;22.244;2022-08-04T08:12:23;4.20;;;2.60;;
59458;SDS011;45269;43.568;22.244;2022-08-04T08:14:48;6.25;;;2.80;;
59458;SDS011;45269;43.568;22.244;2022-08-04T08:17:14;3.33;;;2.60;;
59458;SDS011;45269;43.568;22.244;2022-08-04T08:19:39;7.28;;;2.60;;
59458;SDS011;45269;43.568;22.244;2022-08-04T08:22:05;4.63;;;2.97;;
59458;SDS011;45269;43.568;22.244;2022-08-04T08:24:32;3.53;;;2.47;;
59458;SDS011;45269;43.568;22.244;2022-08-04T08:26:59;3.67;;;2.73;;
59458;SDS011;45269;43.568;22.244;2022-08-04T08:29:25;2.40;;;2.20;;
59458;SDS011;45269;43.568;22.244;2022-08-04T08:31:51;3.25;;;2.55;;
59458;SDS011;45269;43.568;22.244;2022-08-04T08:34:16;5.38;;;2.65;;
59458;SDS011;45269;43.568;22.244;2022-08-04T08:36:46;3.10;;;2.38;;
59458;SDS011;45269;43.568;22.244;2022-08-04T08:39:31;11.68;;;3.15;;
59458;SDS011;45269;43.568;22.244;2022-08-04T08:44:40;3.10;;;2.60;;
59458;SDS011;45269;43.568;22.244;2022-08-04T09:00:00;2.38;;;2.10;;
59458;SDS011;45269;43.568;22.244;2022-08-04T09:07:47;7.68;;;2.72;;
59458;SDS011;45269;43.568;22.244;2022-08-04T09:10:24;2.67;;;2.45;;
59458;SDS011;45269;43.568;22.244;2022-08-04T09:12:58;3.58;;;2.25;;
59458;SDS011;45269;43.568;22.244;2022-08-04T09:17:54;2.53;;;2.28;;
59458;SDS011;45269;43.568;22.244;2022-08-04T09:20:28;2.10;;;1.98;;
59458;SDS011;45269;43.568;22.244;2022-08-04T09:23:02;2.53;;;2.13;;
59458;SDS011;45269;43.568;22.244;2022-08-04T09:25:29;2.47;;;2.15;;
59458;SDS011;45269;43.568;22.244;2022-08-04T09:27:59;2.58;;;2.35;;
59458;SDS011;45269;43.568;22.244;2022-08-04T09:30:40;3.00;;;2.10;;
59458;SDS011;45269;43.568;22.244;2022-08-04T09:33:30;2.55;;;2.35;;
59458;SDS011;45269;43.568;22.244;2022-08-04T09:35:57;2.38;;;2.17;;
59458;SDS011;45269;43.568;22.244;2022-08-04T09:41:02;2.15;;;1.98;;
59458;SDS011;45269;43.568;22.244;2022-08-04T09:43:36;2.42;;;2.22;;
59458;SDS011;45269;43.568;22.244;2022-08-04T09:46:12;2.60;;;2.40;;
59458;SDS011;45269;43.568;22.244;2022-08-04T09:51:23;3.60;;;2.38;;
59458;SDS011;45269;43.568;22.244;2022-08-04T09:59:24;2.45;;;2.28;;
59458;SDS011;45269;43.568;22.244;2022-08-04T10:01:52;2.08;;;1.90;;
59458;SDS011;45269;43.568;22.244;2022-08-04T10:04:18;2.00;;;1.85;;
59458;SDS011;45269;43.568;22.244;2022-08-04T10:07:28;2.20;;;2.00;;
59458;SDS011;45269;43.568;22.244;2022-08-04T10:12:12;2.95;;;2.10;;
59458;SDS011;45269;43.568;22.244;2022-08-04T10:15:02;2.35;;;1.98;;
59458;SDS011;45269;43.568;22.244;2022-08-04T10:22:54;2.00;;;1.90;;
59458;SDS011;45269;43.568;22.244;2022-08-04T10:27:56;2.20;;;2.00;;
59458;SDS011;45269;43.568;22.244;2022-08-04T10:30:23;3.13;;;2.17;;
59458;SDS011;45269;43.568;22.244;2022-08-04T10:32:52;2.50;;;2.30;;
59458;SDS011;45269;43.568;22.244;2022-08-04T10:35:23;5.07;;;1.80;;
59458;SDS011;45269;43.568;22.244;2022-08-04T10:40:47;2.30;;;2.20;;
59458;SDS011;45269;43.568;22.244;2022-08-04T10:43:21;3.17;;;2.00;;
59458;SDS011;45269;43.568;22.244;2022-08-04T10:45:51;2.42;;;2.22;;
59458;SDS011;45269;43.568;22.244;2022-08-04T10:50:43;2.33;;;2.07;;
59458;SDS011;45269;43.568;22.244;2022-08-04T10:53:13;2.40;;;2.20;;
59458;SDS011;45269;43.568;22.244;2022-08-04T10:55:58;2.20;;;2.00;;
59458;SDS011;45269;43.568;22.244;2022-08-04T10:58:24;2.40;;;2.30;;
59458;SDS011;45269;43.568;22.244;2022-08-04T11:00:51;1.90;;;1.80;;
59458;SDS011;45269;43.568;22.244;2022-08-04T11:05:48;1.85;;;1.70;;
59458;SDS011;45269;43.568;22.244;2022-08-04T11:10:46;2.85;;;2.00;;
59458;SDS011;45269;43.568;22.244;2022-08-04T11:13:14;1.73;;;1.60;;
59458;SDS011;45269;43.568;22.244;2022-08-04T11:15:43;7.63;;;1.90;;
59458;SDS011;45269;43.568;22.244;2022-08-04T11:18:12;2.80;;;1.65;;
59458;SDS011;45269;43.568;22.244;2022-08-04T11:20:41;5.80;;;2.30;;
59458;SDS011;45269;43.568;22.244;2022-08-04T11:23:14;1.55;;;1.45;;
59458;SDS011;45269;43.568;22.244;2022-08-04T11:25:56;2.10;;;2.00;;
59458;SDS011;45269;43.568;22.244;2022-08-04T11:33:20;1.63;;;1.53;;
59458;SDS011;45269;43.568;22.244;2022-08-04T11:40:42;1.95;;;1.75;;
59458;SDS011;45269;43.568;22.244;2022-08-04T11:43:11;2.92;;;1.65;;
59458;SDS011;45269;43.568;22.244;2022-08-04T11:45:44;1.38;;;1.27;;
59458;SDS011;45269;43.568;22.244;2022-08-04T11:48:26;2.05;;;1.80;;
59458;SDS011;45269;43.568;22.244;2022-08-04T11:50:53;1.90;;;1.80;;
59458;SDS011;45269;43.568;22.244;2022-08-04T11:53:21;3.47;;;1.77;;
59458;SDS011;45269;43.568;22.244;2022-08-04T11:55:49;1.30;;;1.20;;
59458;SDS011;45269;43.568;22.244;2022-08-04T11:58:16;1.70;;;1.60;;
59458;SDS011;45269;43.568;22.244;2022-08-04T12:01:08;2.65;;;1.40;;
59458;SDS011;45269;43.568;22.244;2022-08-04T12:06:19;1.45;;;1.35;;
59458;SDS011;45269;43.568;22.244;2022-08-04T12:11:32;1.50;;;1.40;;
59458;SDS011;45269;43.568;22.244;2022-08-04T12:16:26;1.60;;;1.50;;
59458;SDS011;45269;43.568;22.244;2022-08-04T12:18:57;2.05;;;1.67;;
59458;SDS011;45269;43.568;22.244;2022-08-04T12:23:50;2.20;;;1.53;;
59458;SDS011;45269;43.568;22.244;2022-08-04T12:26:20;1.50;;;1.40;;
59458;SDS011;45269;43.568;22.244;2022-08-04T12:28:47;1.63;;;1.52;;
59458;SDS011;45269;43.568;22.244;2022-08-04T12:31:16;1.58;;;1.33;;
59458;SDS011;45269;43.568;22.244;2022-08-04T12:33:53;1.30;;;1.20;;
59458;SDS011;45269;43.568;22.244;2022-08-04T12:36:21;1.60;;;1.50;;
59458;SDS011;45269;43.568;22.244;2022-08-04T12:38:51;1.50;;;1.40;;
59458;SDS011;45269;43.568;22.244;2022-08-04T12:41:22;1.23;;;1.20;;
59458;SDS011;45269;43.568;22.244;2022-08-04T12:43:48;2.13;;;1.60;;
59458;SDS011;45269;43.568;22.244;2022-08-04T12:46:32;2.97;;;1.60;;
59458;SDS011;45269;43.568;22.244;2022-08-04T12:48:59;1.42;;;1.33;;
59458;SDS011;45269;43.568;22.244;2022-08-04T12:51:26;1.50;;;1.40;;
59458;SDS011;45269;43.568;22.244;2022-08-04T12:53:51;1.60;;;1.50;;
59458;SDS011;45269;43.568;22.244;2022-08-04T12:56:17;1.67;;;1.30;;
59458;SDS011;45269;43.568;22.244;2022-08-04T12:58:48;2.70;;;1.50;;
59458;SDS011;45269;43.568;22.244;2022-08-04T13:01:17;1.77;;;1.60;;
59458;SDS011;45269;43.568;22.244;2022-08-04T13:03:44;1.60;;;1.50;;
59458;SDS011;45269;43.568;22.244;2022-08-04T13:08:40;2.03;;;1.83;;
59458;SDS011;45269;43.568;22.244;2022-08-04T13:11:06;3.17;;;1.73;;
59458;SDS011;45269;43.568;22.244;2022-08-04T13:13:33;1.85;;;1.63;;
59458;SDS011;45269;43.568;22.244;2022-08-04T13:16:03;1.70;;;1.60;;
59458;SDS011;45269;43.568;22.244;2022-08-04T13:18:30;1.60;;;1.50;;
59458;SDS011;45269;43.568;22.244;2022-08-04T13:21:06;1.50;;;1.40;;
59458;SDS011;45269;43.568;22.244;2022-08-04T13:23:32;1.92;;;1.63;;
59458;SDS011;45269;43.568;22.244;2022-08-04T13:25:58;1.70;;;1.60;;
59458;SDS011;45269;43.568;22.244;2022-08-04T13:28:24;1.63;;;1.52;;
59458;SDS011;45269;43.568;22.244;2022-08-04T13:31:03;1.83;;;1.70;;
59458;SDS011;45269;43.568;22.244;2022-08-04T13:33:31;11.05;;;2.22;;
59458;SDS011;45269;43.568;22.244;2022-08-04T13:35:57;1.90;;;1.80;;
59458;SDS011;45269;43.568;22.244;2022-08-04T13:38:24;4.30;;;1.55;;
59458;SDS011;45269;43.568;22.244;2022-08-04T13:40:50;1.98;;;1.73;;
59458;SDS011;45269;43.568;22.244;2022-08-04T13:43:23;1.60;;;1.50;;
59458;SDS011;45269;43.568;22.244;2022-08-04T13:45:49;1.40;;;1.40;;
59458;SDS011;45269;43.568;22.244;2022-08-04T13:48:14;2.65;;;1.77;;
59458;SDS011;45269;43.568;22.244;2022-08-04T13:50:43;1.70;;;1.60;;
59458;SDS011;45269;43.568;22.244;2022-08-04T13:53:09;1.98;;;1.88;;
59458;SDS011;45269;43.568;22.244;2022-08-04T13:55:36;2.00;;;1.80;;
59458;SDS011;45269;43.568;22.244;2022-08-04T13:58:23;1.95;;;1.48;;
59458;SDS011;45269;43.568;22.244;2022-08-04T14:00:57;1.88;;;1.77;;
59458;SDS011;45269;43.568;22.244;2022-08-04T14:08:42;3.42;;;1.98;;
59458;SDS011;45269;43.568;22.244;2022-08-04T14:11:09;1.70;;;1.60;;
59458;SDS011;45269;43.568;22.244;2022-08-04T14:13:35;3.53;;;2.10;;
59458;SDS011;45269;43.568;22.244;2022-08-04T14:16:00;1.98;;;1.75;;
59458;SDS011;45269;43.568;22.244;2022-08-04T14:18:29;4.72;;;1.88;;
59458;SDS011;45269;43.568;22.244;2022-08-04T14:20:57;1.85;;;1.75;;
59458;SDS011;45269;43.568;22.244;2022-08-04T14:23:23;1.83;;;1.73;;
59458;SDS011;45269;43.568;22.244;2022-08-04T14:25:48;1.98;;;1.88;;
59458;SDS011;45269;43.568;22.244;2022-08-04T14:28:13;1.80;;;1.70;;
59458;SDS011;45269;43.568;22.244;2022-08-04T14:30:50;2.10;;;2.00;;
59458;SDS011;45269;43.568;22.244;2022-08-04T14:33:16;2.15;;;1.98;;
59458;SDS011;45269;43.568;22.244;2022-08-04T14:35:42;3.50;;;1.80;;
59458;SDS011;45269;43.568;22.244;2022-08-04T14:38:19;1.95;;;1.85;;
59458;SDS011;45269;43.568;22.244;2022-08-04T14:40:45;1.92;;;1.45;;
59458;SDS011;45269;43.568;22.244;2022-08-04T14:43:10;2.13;;;1.98;;
59458;SDS011;45269;43.568;22.244;2022-08-04T14:45:41;4.97;;;1.70;;
59458;SDS011;45269;43.568;22.244;2022-08-04T14:48:08;1.98;;;1.77;;
59458;SDS011;45269;43.568;22.244;2022-08-04T14:53:02;3.10;;;1.90;;
59458;SDS011;45269;43.568;22.244;2022-08-04T14:55:28;2.88;;;1.92;;
59458;SDS011;45269;43.568;22.244;2022-08-04T14:57:54;2.35;;;1.80;;
59458;SDS011;45269;43.568;22.244;2022-08-04T15:00:24;1.80;;;1.70;;
59458;SDS011;45269;43.568;22.244;2022-08-04T15:02:49;3.97;;;1.83;;
59458;SDS011;45269;43.568;22.244;2022-08-04T15:05:15;2.22;;;1.90;;
59458;SDS011;45269;43.568;22.244;2022-08-04T15:07:41;2.35;;;2.08;;
59458;SDS011;45269;43.568;22.244;2022-08-04T15:10:06;2.10;;;2.00;;
59458;SDS011;45269;43.568;22.244;2022-08-04T15:12:31;2.30;;;2.10;;
59458;SDS011;45269;43.568;22.244;2022-08-04T15:14:57;2.08;;;1.95;;
59458;SDS011;45269;43.568;22.244;2022-08-04T15:17:22;1.88;;;1.77;;
59458;SDS011;45269;43.568;22.244;2022-08-04T15:19:48;2.05;;;1.85;;
59458;SDS011;45269;43.568;22.244;2022-08-04T15:22:14;1.90;;;1.80;;
59458;SDS011;45269;43.568;22.244;2022-08-04T15:24:39;2.15;;;2.00;;
59458;SDS011;45269;43.568;22.244;2022-08-04T15:27:04;3.53;;;2.10;;
59458;SDS011;45269;43.568;22.244;2022-08-04T15:29:39;2.35;;;1.88;;
59458;SDS011;45269;43.568;22.244;2022-08-04T15:32:06;1.83;;;1.73;;
59458;SDS011;45269;43.568;22.244;2022-08-04T15:34:48;3.03;;;1.80;;
59458;SDS011;45269;43.568;22.244;2022-08-04T15:37:14;1.80;;;1.70;;
59458;SDS011;45269;43.568;22.244;2022-08-04T15:39:47;4.20;;;1.92;;
59458;SDS011;45269;43.568;22.244;2022-08-04T15:42:31;3.80;;;2.35;;
59458;SDS011;45269;43.568;22.244;2022-08-04T15:45:18;2.28;;;1.80;;
59458;SDS011;45269;43.568;22.244;2022-08-04T15:48:30;2.25;;;2.13;;
59458;SDS011;45269;43.568;22.244;2022-08-04T15:50:30;2.47;;;2.08;;
59458;SDS011;45269;43.568;22.244;2022-08-04T15:53:03;1.95;;;1.85;;
59458;SDS011;45269;43.568;22.244;2022-08-04T15:57:57;2.95;;;1.88;;
59458;SDS011;45269;43.568;22.244;2022-08-04T16:00:25;3.05;;;1.92;;
59458;SDS011;45269;43.568;22.244;2022-08-04T16:02:50;2.10;;;1.90;;
59458;SDS011;45269;43.568;22.244;2022-08-04T16:07:54;3.57;;;2.20;;
59458;SDS011;45269;43.568;22.244;2022-08-04T16:12:56;2.13;;;1.88;;
59458;SDS011;45269;43.568;22.244;2022-08-04T16:18:05;2.03;;;1.92;;
59458;SDS011;45269;43.568;22.244;2022-08-04T16:20:32;1.77;;;1.67;;
59458;SDS011;45269;43.568;22.244;2022-08-04T16:23:12;2.05;;;1.95;;
59458;SDS011;45269;43.568;22.244;2022-08-04T16:25:41;2.50;;;2.30;;
59458;SDS011;45269;43.568;22.244;2022-08-04T16:28:08;2.35;;;2.08;;
59458;SDS011;45269;43.568;22.244;2022-08-04T16:30:59;3.00;;;2.10;;
59458;SDS011;45269;43.568;22.244;2022-08-04T16:33:26;3.75;;;1.90;;
59458;SDS011;45269;43.568;22.244;2022-08-04T16:35:52;2.38;;;2.17;;
59458;SDS011;45269;43.568;22.244;2022-08-04T16:38:17;1.95;;;1.85;;
59458;SDS011;45269;43.568;22.244;2022-08-04T16:40:43;2.17;;;1.95;;
59458;SDS011;45269;43.568;22.244;2022-08-04T16:43:09;3.17;;;2.10;;
59458;SDS011;45269;43.568;22.244;2022-08-04T16:48:06;2.20;;;2.10;;
59458;SDS011;45269;43.568;22.244;2022-08-04T16:50:32;2.30;;;2.10;;
59458;SDS011;45269;43.568;22.244;2022-08-04T16:52:59;3.60;;;1.92;;
59458;SDS011;45269;43.568;22.244;2022-08-04T16:55:26;2.03;;;1.92;;
59458;SDS011;45269;43.568;22.244;2022-08-04T16:57:53;2.47;;;2.28;;
59458;SDS011;45269;43.568;22.244;2022-08-04T17:00:29;2.15;;;2.03;;
59458;SDS011;45269;43.568;22.244;2022-08-04T17:02:55;2.40;;;2.20;;
59458;SDS011;45269;43.568;22.244;2022-08-04T17:05:24;2.78;;;1.77;;
59458;SDS011;45269;43.568;22.244;2022-08-04T17:10:15;4.70;;;1.70;;
59458;SDS011;45269;43.568;22.244;2022-08-04T17:12:40;3.22;;;2.17;;
59458;SDS011;45269;43.568;22.244;2022-08-04T17:15:26;2.38;;;1.92;;
59458;SDS011;45269;43.568;22.244;2022-08-04T17:17:51;2.42;;;2.30;;
59458;SDS011;45269;43.568;22.244;2022-08-04T17:20:38;4.88;;;2.38;;
59458;SDS011;45269;43.568;22.244;2022-08-04T17:23:23;3.10;;;2.80;;
59458;SDS011;45269;43.568;22.244;2022-08-04T17:25:49;2.42;;;2.25;;
59458;SDS011;45269;43.568;22.244;2022-08-04T17:28:17;7.13;;;2.75;;
59458;SDS011;45269;43.568;22.244;2022-08-04T17:30:43;2.33;;;2.13;;
59458;SDS011;45269;43.568;22.244;2022-08-04T17:33:11;2.55;;;2.35;;
59458;SDS011;45269;43.568;22.244;2022-08-04T17:35:38;2.43;;;2.23;;
59458;SDS011;45269;43.568;22.244;2022-08-04T17:38:03;2.70;;;2.50;;
59458;SDS011;45269;43.568;22.244;2022-08-04T17:40:29;3.83;;;2.50;;
59458;SDS011;45269;43.568;22.244;2022-08-04T17:43:04;3.90;;;2.38;;
59458;SDS011;45269;43.568;22.244;2022-08-04T17:45:29;2.78;;;2.42;;
59458;SDS011;45269;43.568;22.244;2022-08-04T17:47:55;2.90;;;2.60;;
59458;SDS011;45269;43.568;22.244;2022-08-04T17:50:27;6.80;;;2.83;;
59458;SDS011;45269;43.568;22.244;2022-08-04T17:53:00;3.00;;;2.40;;
59458;SDS011;45269;43.568;22.244;2022-08-04T17:55:35;3.67;;;2.50;;
59458;SDS011;45269;43.568;22.244;2022-08-04T17:58:11;3.35;;;2.60;;
59458;SDS011;45269;43.568;22.244;2022-08-04T18:00:36;2.85;;;2.53;;
59458;SDS011;45269;43.568;22.244;2022-08-04T18:03:01;3.78;;;2.75;;
59458;SDS011;45269;43.568;22.244;2022-08-04T18:05:27;2.75;;;2.55;;
59458;SDS011;45269;43.568;22.244;2022-08-04T18:07:53;2.80;;;2.60;;
59458;SDS011;45269;43.568;22.244;2022-08-04T18:10:19;2.70;;;2.50;;
59458;SDS011;45269;43.568;22.244;2022-08-04T18:12:45;2.85;;;2.65;;
59458;SDS011;45269;43.568;22.244;2022-08-04T18:15:22;2.10;;;1.90;;
59458;SDS011;45269;43.568;22.244;2022-08-04T18:17:49;3.20;;;2.90;;
59458;SDS011;45269;43.568;22.244;2022-08-04T18:20:16;3.10;;;2.80;;
59458;SDS011;45269;43.568;22.244;2022-08-04T18:22:44;3.55;;;3.25;;
59458;SDS011;45269;43.568;22.244;2022-08-04T18:25:10;3.30;;;3.00;;
59458;SDS011;45269;43.568;22.244;2022-08-04T18:27:45;5.75;;;3.17;;
59458;SDS011;45269;43.568;22.244;2022-08-04T18:30:11;15.43;;;3.70;;
59458;SDS011;45269;43.568;22.244;2022-08-04T18:32:36;3.83;;;3.47;;
59458;SDS011;45269;43.568;22.244;2022-08-04T18:35:01;5.25;;;3.13;;
59458;SDS011;45269;43.568;22.244;2022-08-04T18:37:27;4.43;;;3.70;;
59458;SDS011;45269;43.568;22.244;2022-08-04T18:39:52;4.38;;;3.08;;
59458;SDS011;45269;43.568;22.244;2022-08-04T18:42:17;2.90;;;2.70;;
59458;SDS011;45269;43.568;22.244;2022-08-04T18:44:43;3.55;;;3.13;;
59458;SDS011;45269;43.568;22.244;2022-08-04T18:47:08;3.28;;;2.97;;